San Ygnacio, Texas
Current Conditions -  °F | °C
As of 10:15 AM on Monday 24 Nov 2014 (Local Time) from KAPY Reporting Station
Clear Clear  
Wind Chill: 16°   Ceiling: Unl
Heat Index: 16°   Visibility: 10mi
Dew Point:   Wind: 12mph
Humidity: 41%   Direction: 10°N
Pressure: 30.13"   Gusts: 18mph
Location:  27.04°N, 99.44°W
Report Text: KAPY 241615Z AUTO 01010G16KT 10SM CLR 16/02 A3013 RMK AO2 T01610029
Loading
Personal Weather Stations






























Interactive Weather Map New forecast layout! Learn more

10-Day Weather Forecast

Advertisements
Track Severe Weather on mobile